sensor_id;sensor_type;location;lat;lon;timestamp;P1;durP1;ratioP1;P2;durP2;ratioP2
7334;SDS011;3708;42.632;23.378;2023-03-01T00:01:41;4.53;;;3.53;;
7334;SDS011;3708;42.632;23.378;2023-03-01T00:04:08;4.40;;;3.70;;
7334;SDS011;3708;42.632;23.378;2023-03-01T00:06:35;3.83;;;3.43;;
7334;SDS011;3708;42.632;23.378;2023-03-01T00:09:02;5.27;;;3.60;;
7334;SDS011;3708;42.632;23.378;2023-03-01T00:11:31;4.50;;;3.73;;
7334;SDS011;3708;42.632;23.378;2023-03-01T00:14:00;8.33;;;4.30;;
7334;SDS011;3708;42.632;23.378;2023-03-01T00:16:30;4.87;;;3.97;;
7334;SDS011;3708;42.632;23.378;2023-03-01T00:18:58;4.83;;;4.30;;
7334;SDS011;3708;42.632;23.378;2023-03-01T00:21:26;5.07;;;4.43;;
7334;SDS011;3708;42.632;23.378;2023-03-01T00:23:53;4.40;;;4.00;;
7334;SDS011;3708;42.632;23.378;2023-03-01T00:26:21;4.87;;;4.37;;
7334;SDS011;3708;42.632;23.378;2023-03-01T00:28:50;6.87;;;5.10;;
7334;SDS011;3708;42.632;23.378;2023-03-01T00:31:19;6.30;;;3.87;;
7334;SDS011;3708;42.632;23.378;2023-03-01T00:33:47;4.13;;;3.73;;
7334;SDS011;3708;42.632;23.378;2023-03-01T00:36:15;3.40;;;3.10;;
7334;SDS011;3708;42.632;23.378;2023-03-01T00:38:43;5.03;;;3.90;;
7334;SDS011;3708;42.632;23.378;2023-03-01T00:41:11;4.43;;;3.57;;
7334;SDS011;3708;42.632;23.378;2023-03-01T00:43:39;4.33;;;3.43;;
7334;SDS011;3708;42.632;23.378;2023-03-01T00:46:08;4.27;;;3.27;;
7334;SDS011;3708;42.632;23.378;2023-03-01T00:48:36;4.10;;;3.30;;
7334;SDS011;3708;42.632;23.378;2023-03-01T00:51:04;3.80;;;3.50;;
7334;SDS011;3708;42.632;23.378;2023-03-01T00:53:32;3.27;;;2.97;;
7334;SDS011;3708;42.632;23.378;2023-03-01T00:55:59;4.37;;;3.60;;
7334;SDS011;3708;42.632;23.378;2023-03-01T00:58:26;4.40;;;3.80;;
7334;SDS011;3708;42.632;23.378;2023-03-01T01:00:53;3.93;;;3.27;;
7334;SDS011;3708;42.632;23.378;2023-03-01T01:03:22;3.67;;;3.10;;
7334;SDS011;3708;42.632;23.378;2023-03-01T01:05:54;3.40;;;3.10;;
7334;SDS011;3708;42.632;23.378;2023-03-01T01:08:21;3.90;;;3.20;;
7334;SDS011;3708;42.632;23.378;2023-03-01T01:10:47;4.67;;;3.07;;
7334;SDS011;3708;42.632;23.378;2023-03-01T01:13:14;4.03;;;3.30;;
7334;SDS011;3708;42.632;23.378;2023-03-01T01:15:41;4.23;;;3.57;;
7334;SDS011;3708;42.632;23.378;2023-03-01T01:18:08;4.80;;;3.43;;
7334;SDS011;3708;42.632;23.378;2023-03-01T01:20:37;2.87;;;2.67;;
7334;SDS011;3708;42.632;23.378;2023-03-01T01:23:05;4.00;;;3.03;;
7334;SDS011;3708;42.632;23.378;2023-03-01T01:25:34;3.20;;;2.90;;
7334;SDS011;3708;42.632;23.378;2023-03-01T01:28:02;3.77;;;3.00;;
7334;SDS011;3708;42.632;23.378;2023-03-01T01:30:29;3.50;;;3.20;;
7334;SDS011;3708;42.632;23.378;2023-03-01T01:32:56;3.03;;;2.73;;
7334;SDS011;3708;42.632;23.378;2023-03-01T01:35:23;3.70;;;2.80;;
7334;SDS011;3708;42.632;23.378;2023-03-01T01:37:52;2.67;;;2.33;;
7334;SDS011;3708;42.632;23.378;2023-03-01T01:40:19;3.33;;;3.03;;
7334;SDS011;3708;42.632;23.378;2023-03-01T01:42:46;2.23;;;2.03;;
7334;SDS011;3708;42.632;23.378;2023-03-01T01:45:24;3.07;;;2.77;;
7334;SDS011;3708;42.632;23.378;2023-03-01T01:47:54;2.40;;;2.20;;
7334;SDS011;3708;42.632;23.378;2023-03-01T01:50:23;2.47;;;2.27;;
7334;SDS011;3708;42.632;23.378;2023-03-01T01:52:53;2.80;;;2.50;;
7334;SDS011;3708;42.632;23.378;2023-03-01T01:55:21;2.33;;;2.13;;
7334;SDS011;3708;42.632;23.378;2023-03-01T01:57:53;2.30;;;2.10;;
7334;SDS011;3708;42.632;23.378;2023-03-01T02:00:24;2.53;;;2.33;;
7334;SDS011;3708;42.632;23.378;2023-03-01T02:02:54;2.77;;;2.30;;
7334;SDS011;3708;42.632;23.378;2023-03-01T02:05:24;2.30;;;2.10;;
7334;SDS011;3708;42.632;23.378;2023-03-01T02:07:59;2.73;;;2.47;;
7334;SDS011;3708;42.632;23.378;2023-03-01T02:10:26;2.40;;;2.20;;
7334;SDS011;3708;42.632;23.378;2023-03-01T02:12:54;2.67;;;2.47;;
7334;SDS011;3708;42.632;23.378;2023-03-01T02:15:24;2.40;;;2.20;;
7334;SDS011;3708;42.632;23.378;2023-03-01T02:17:51;2.13;;;1.93;;
7334;SDS011;3708;42.632;23.378;2023-03-01T02:20:20;2.47;;;2.27;;
7334;SDS011;3708;42.632;23.378;2023-03-01T02:22:53;2.37;;;2.17;;
7334;SDS011;3708;42.632;23.378;2023-03-01T02:25:27;2.50;;;2.30;;
7334;SDS011;3708;42.632;23.378;2023-03-01T02:28:03;2.80;;;2.33;;
7334;SDS011;3708;42.632;23.378;2023-03-01T02:30:36;3.00;;;2.70;;
7334;SDS011;3708;42.632;23.378;2023-03-01T02:33:23;2.67;;;2.47;;
7334;SDS011;3708;42.632;23.378;2023-03-01T02:35:50;2.87;;;2.67;;
7334;SDS011;3708;42.632;23.378;2023-03-01T02:38:20;2.67;;;2.47;;
7334;SDS011;3708;42.632;23.378;2023-03-01T02:40:48;3.07;;;2.77;;
7334;SDS011;3708;42.632;23.378;2023-03-01T02:43:17;2.83;;;2.63;;
7334;SDS011;3708;42.632;23.378;2023-03-01T02:45:53;4.43;;;2.53;;
7334;SDS011;3708;42.632;23.378;2023-03-01T02:48:24;3.07;;;2.77;;
7334;SDS011;3708;42.632;23.378;2023-03-01T02:50:56;3.17;;;2.87;;
7334;SDS011;3708;42.632;23.378;2023-03-01T02:53:38;3.17;;;2.87;;
7334;SDS011;3708;42.632;23.378;2023-03-01T02:56:13;3.10;;;2.80;;
7334;SDS011;3708;42.632;23.378;2023-03-01T02:58:40;3.53;;;3.23;;
7334;SDS011;3708;42.632;23.378;2023-03-01T03:01:13;4.00;;;3.60;;
7334;SDS011;3708;42.632;23.378;2023-03-01T03:03:41;4.23;;;3.70;;
7334;SDS011;3708;42.632;23.378;2023-03-01T03:06:08;4.23;;;3.67;;
7334;SDS011;3708;42.632;23.378;2023-03-01T03:08:36;4.10;;;3.70;;
7334;SDS011;3708;42.632;23.378;2023-03-01T03:11:03;4.60;;;4.20;;
7334;SDS011;3708;42.632;23.378;2023-03-01T03:13:30;4.00;;;3.63;;
7334;SDS011;3708;42.632;23.378;2023-03-01T03:15:57;4.97;;;4.57;;
7334;SDS011;3708;42.632;23.378;2023-03-01T03:18:26;5.20;;;4.70;;
7334;SDS011;3708;42.632;23.378;2023-03-01T03:20:53;5.00;;;4.50;;
7334;SDS011;3708;42.632;23.378;2023-03-01T03:23:20;5.87;;;5.27;;
7334;SDS011;3708;42.632;23.378;2023-03-01T03:25:47;5.03;;;4.53;;
7334;SDS011;3708;42.632;23.378;2023-03-01T03:28:15;6.13;;;5.40;;
7334;SDS011;3708;42.632;23.378;2023-03-01T03:30:42;5.80;;;5.03;;
7334;SDS011;3708;42.632;23.378;2023-03-01T03:33:11;5.63;;;5.03;;
7334;SDS011;3708;42.632;23.378;2023-03-01T03:35:42;6.17;;;5.47;;
7334;SDS011;3708;42.632;23.378;2023-03-01T03:38:11;6.63;;;5.93;;
7334;SDS011;3708;42.632;23.378;2023-03-01T03:40:42;6.33;;;4.87;;
7334;SDS011;3708;42.632;23.378;2023-03-01T03:43:11;6.07;;;5.10;;
7334;SDS011;3708;42.632;23.378;2023-03-01T03:45:40;6.17;;;4.83;;
7334;SDS011;3708;42.632;23.378;2023-03-01T03:48:07;6.10;;;5.13;;
7334;SDS011;3708;42.632;23.378;2023-03-01T03:50:35;5.83;;;4.77;;
7334;SDS011;3708;42.632;23.378;2023-03-01T03:53:05;6.00;;;4.37;;
7334;SDS011;3708;42.632;23.378;2023-03-01T03:55:37;4.47;;;3.93;;
7334;SDS011;3708;42.632;23.378;2023-03-01T03:58:08;7.60;;;4.40;;
7334;SDS011;3708;42.632;23.378;2023-03-01T04:00:36;4.87;;;4.10;;
7334;SDS011;3708;42.632;23.378;2023-03-01T04:03:05;4.27;;;3.63;;
7334;SDS011;3708;42.632;23.378;2023-03-01T04:05:33;4.20;;;3.60;;
7334;SDS011;3708;42.632;23.378;2023-03-01T04:08:01;5.67;;;3.63;;
7334;SDS011;3708;42.632;23.378;2023-03-01T04:10:34;3.40;;;3.07;;
7334;SDS011;3708;42.632;23.378;2023-03-01T04:13:02;3.43;;;2.73;;
7334;SDS011;3708;42.632;23.378;2023-03-01T04:15:29;3.50;;;3.03;;
7334;SDS011;3708;42.632;23.378;2023-03-01T04:17:57;3.10;;;2.77;;
7334;SDS011;3708;42.632;23.378;2023-03-01T04:20:25;4.37;;;3.37;;
7334;SDS011;3708;42.632;23.378;2023-03-01T04:22:56;4.10;;;2.97;;
7334;SDS011;3708;42.632;23.378;2023-03-01T04:25:25;3.80;;;3.20;;
7334;SDS011;3708;42.632;23.378;2023-03-01T04:27:53;4.20;;;3.77;;
7334;SDS011;3708;42.632;23.378;2023-03-01T04:30:20;5.73;;;3.80;;
7334;SDS011;3708;42.632;23.378;2023-03-01T04:32:50;5.63;;;4.27;;
7334;SDS011;3708;42.632;23.378;2023-03-01T04:35:17;5.10;;;4.33;;
7334;SDS011;3708;42.632;23.378;2023-03-01T04:37:44;4.30;;;3.60;;
7334;SDS011;3708;42.632;23.378;2023-03-01T04:40:11;4.33;;;3.50;;
7334;SDS011;3708;42.632;23.378;2023-03-01T04:42:41;4.27;;;3.50;;
7334;SDS011;3708;42.632;23.378;2023-03-01T04:45:10;3.70;;;3.27;;
7334;SDS011;3708;42.632;23.378;2023-03-01T04:47:39;4.47;;;3.50;;
7334;SDS011;3708;42.632;23.378;2023-03-01T04:50:08;4.83;;;3.97;;
7334;SDS011;3708;42.632;23.378;2023-03-01T04:52:35;5.17;;;4.10;;
7334;SDS011;3708;42.632;23.378;2023-03-01T04:55:03;7.17;;;4.37;;
7334;SDS011;3708;42.632;23.378;2023-03-01T04:57:31;5.90;;;4.00;;
7334;SDS011;3708;42.632;23.378;2023-03-01T04:59:58;5.73;;;3.77;;
7334;SDS011;3708;42.632;23.378;2023-03-01T05:02:42;3.97;;;3.30;;
7334;SDS011;3708;42.632;23.378;2023-03-01T05:05:08;6.30;;;3.37;;
7334;SDS011;3708;42.632;23.378;2023-03-01T05:07:35;4.13;;;3.73;;
7334;SDS011;3708;42.632;23.378;2023-03-01T05:10:02;5.70;;;4.27;;
7334;SDS011;3708;42.632;23.378;2023-03-01T05:12:29;4.43;;;4.03;;
7334;SDS011;3708;42.632;23.378;2023-03-01T05:14:56;5.20;;;4.57;;
7334;SDS011;3708;42.632;23.378;2023-03-01T05:17:23;5.43;;;3.90;;
7334;SDS011;3708;42.632;23.378;2023-03-01T05:19:51;4.63;;;4.13;;
7334;SDS011;3708;42.632;23.378;2023-03-01T05:22:20;4.20;;;3.60;;
7334;SDS011;3708;42.632;23.378;2023-03-01T05:24:48;3.33;;;3.00;;
7334;SDS011;3708;42.632;23.378;2023-03-01T05:27:14;4.17;;;2.97;;
7334;SDS011;3708;42.632;23.378;2023-03-01T05:29:41;3.20;;;2.73;;
7334;SDS011;3708;42.632;23.378;2023-03-01T05:32:08;3.40;;;2.80;;
7334;SDS011;3708;42.632;23.378;2023-03-01T05:34:43;4.90;;;2.60;;
7334;SDS011;3708;42.632;23.378;2023-03-01T05:37:14;2.50;;;2.30;;
7334;SDS011;3708;42.632;23.378;2023-03-01T05:39:41;2.43;;;2.23;;
7334;SDS011;3708;42.632;23.378;2023-03-01T05:42:09;2.23;;;1.97;;
7334;SDS011;3708;42.632;23.378;2023-03-01T05:44:38;2.30;;;2.10;;
7334;SDS011;3708;42.632;23.378;2023-03-01T05:47:06;2.90;;;2.60;;
7334;SDS011;3708;42.632;23.378;2023-03-01T05:49:34;2.97;;;2.60;;
7334;SDS011;3708;42.632;23.378;2023-03-01T05:52:00;4.10;;;2.70;;
7334;SDS011;3708;42.632;23.378;2023-03-01T05:54:29;3.00;;;2.70;;
7334;SDS011;3708;42.632;23.378;2023-03-01T05:56:57;3.23;;;2.53;;
7334;SDS011;3708;42.632;23.378;2023-03-01T05:59:23;5.77;;;2.93;;
7334;SDS011;3708;42.632;23.378;2023-03-01T06:01:50;2.70;;;2.50;;
7334;SDS011;3708;42.632;23.378;2023-03-01T06:04:17;2.30;;;2.10;;
7334;SDS011;3708;42.632;23.378;2023-03-01T06:06:44;3.07;;;2.10;;
7334;SDS011;3708;42.632;23.378;2023-03-01T06:09:11;2.40;;;2.20;;
7334;SDS011;3708;42.632;23.378;2023-03-01T06:11:41;2.87;;;2.60;;
7334;SDS011;3708;42.632;23.378;2023-03-01T06:14:09;2.30;;;2.10;;
7334;SDS011;3708;42.632;23.378;2023-03-01T06:16:37;2.60;;;2.00;;
7334;SDS011;3708;42.632;23.378;2023-03-01T06:19:04;3.63;;;2.03;;
7334;SDS011;3708;42.632;23.378;2023-03-01T06:21:31;3.53;;;1.67;;
7334;SDS011;3708;42.632;23.378;2023-03-01T06:23:58;1.60;;;1.50;;
7334;SDS011;3708;42.632;23.378;2023-03-01T06:26:25;3.63;;;1.87;;
7334;SDS011;3708;42.632;23.378;2023-03-01T06:28:53;3.93;;;1.77;;
7334;SDS011;3708;42.632;23.378;2023-03-01T06:31:20;1.90;;;1.70;;
7334;SDS011;3708;42.632;23.378;2023-03-01T06:33:47;2.30;;;1.87;;
7334;SDS011;3708;42.632;23.378;2023-03-01T06:36:14;2.40;;;1.70;;
7334;SDS011;3708;42.632;23.378;2023-03-01T06:38:43;2.87;;;1.80;;
7334;SDS011;3708;42.632;23.378;2023-03-01T06:41:10;1.80;;;1.67;;
7334;SDS011;3708;42.632;23.378;2023-03-01T06:43:37;3.73;;;1.80;;
7334;SDS011;3708;42.632;23.378;2023-03-01T06:46:06;2.83;;;2.57;;
7334;SDS011;3708;42.632;23.378;2023-03-01T06:48:33;3.87;;;2.83;;
7334;SDS011;3708;42.632;23.378;2023-03-01T06:51:00;3.30;;;2.70;;
7334;SDS011;3708;42.632;23.378;2023-03-01T06:53:27;6.10;;;3.40;;
7334;SDS011;3708;42.632;23.378;2023-03-01T06:55:54;4.37;;;3.20;;
7334;SDS011;3708;42.632;23.378;2023-03-01T06:58:22;6.80;;;3.83;;
7334;SDS011;3708;42.632;23.378;2023-03-01T07:00:49;6.73;;;3.17;;
7334;SDS011;3708;42.632;23.378;2023-03-01T07:03:17;8.97;;;4.50;;
7334;SDS011;3708;42.632;23.378;2023-03-01T07:05:44;5.80;;;4.07;;
7334;SDS011;3708;42.632;23.378;2023-03-01T07:08:11;5.10;;;3.60;;
7334;SDS011;3708;42.632;23.378;2023-03-01T07:10:37;4.80;;;3.30;;
7334;SDS011;3708;42.632;23.378;2023-03-01T07:13:04;3.93;;;3.10;;
7334;SDS011;3708;42.632;23.378;2023-03-01T07:15:33;4.97;;;3.30;;
7334;SDS011;3708;42.632;23.378;2023-03-01T07:18:00;3.23;;;2.67;;
7334;SDS011;3708;42.632;23.378;2023-03-01T07:20:30;3.10;;;2.30;;
7334;SDS011;3708;42.632;23.378;2023-03-01T07:22:56;3.07;;;2.70;;
7334;SDS011;3708;42.632;23.378;2023-03-01T07:25:24;4.93;;;2.53;;
7334;SDS011;3708;42.632;23.378;2023-03-01T07:27:53;4.17;;;2.43;;
7334;SDS011;3708;42.632;23.378;2023-03-01T07:30:20;4.10;;;2.40;;
7334;SDS011;3708;42.632;23.378;2023-03-01T07:32:51;2.67;;;2.30;;
7334;SDS011;3708;42.632;23.378;2023-03-01T07:35:18;2.90;;;2.57;;
7334;SDS011;3708;42.632;23.378;2023-03-01T07:37:46;3.30;;;2.40;;
7334;SDS011;3708;42.632;23.378;2023-03-01T07:40:13;3.37;;;2.70;;
7334;SDS011;3708;42.632;23.378;2023-03-01T07:42:40;3.20;;;2.60;;
7334;SDS011;3708;42.632;23.378;2023-03-01T07:45:07;2.90;;;2.47;;
7334;SDS011;3708;42.632;23.378;2023-03-01T07:47:35;2.60;;;2.40;;
7334;SDS011;3708;42.632;23.378;2023-03-01T07:50:02;3.23;;;2.27;;
7334;SDS011;3708;42.632;23.378;2023-03-01T07:52:29;3.03;;;2.47;;
7334;SDS011;3708;42.632;23.378;2023-03-01T07:54:59;2.60;;;2.40;;
7334;SDS011;3708;42.632;23.378;2023-03-01T07:57:27;3.97;;;2.60;;
7334;SDS011;3708;42.632;23.378;2023-03-01T07:59:55;3.10;;;2.63;;
7334;SDS011;3708;42.632;23.378;2023-03-01T08:02:22;3.60;;;2.37;;
7334;SDS011;3708;42.632;23.378;2023-03-01T08:04:49;2.23;;;2.03;;
7334;SDS011;3708;42.632;23.378;2023-03-01T08:07:16;6.30;;;2.20;;
7334;SDS011;3708;42.632;23.378;2023-03-01T08:09:43;3.47;;;2.40;;
7334;SDS011;3708;42.632;23.378;2023-03-01T08:12:12;5.40;;;2.50;;
7334;SDS011;3708;42.632;23.378;2023-03-01T08:14:39;3.13;;;2.47;;
7334;SDS011;3708;42.632;23.378;2023-03-01T08:17:05;2.43;;;2.23;;
7334;SDS011;3708;42.632;23.378;2023-03-01T08:19:33;3.47;;;2.70;;
7334;SDS011;3708;42.632;23.378;2023-03-01T08:22:00;3.30;;;2.43;;
7334;SDS011;3708;42.632;23.378;2023-03-01T08:24:28;3.37;;;2.60;;
7334;SDS011;3708;42.632;23.378;2023-03-01T08:26:55;3.53;;;2.73;;
7334;SDS011;3708;42.632;23.378;2023-03-01T08:29:23;2.50;;;2.30;;
7334;SDS011;3708;42.632;23.378;2023-03-01T08:31:50;6.40;;;2.63;;
7334;SDS011;3708;42.632;23.378;2023-03-01T08:34:18;2.40;;;2.20;;
7334;SDS011;3708;42.632;23.378;2023-03-01T08:36:45;7.20;;;3.20;;
7334;SDS011;3708;42.632;23.378;2023-03-01T08:39:13;3.07;;;2.77;;
7334;SDS011;3708;42.632;23.378;2023-03-01T08:41:43;3.10;;;2.63;;
7334;SDS011;3708;42.632;23.378;2023-03-01T08:44:11;4.90;;;2.90;;
7334;SDS011;3708;42.632;23.378;2023-03-01T08:46:43;2.50;;;2.30;;
7334;SDS011;3708;42.632;23.378;2023-03-01T08:49:11;3.90;;;2.83;;
7334;SDS011;3708;42.632;23.378;2023-03-01T08:51:39;2.57;;;2.37;;
7334;SDS011;3708;42.632;23.378;2023-03-01T08:54:07;3.10;;;2.60;;
7334;SDS011;3708;42.632;23.378;2023-03-01T08:56:38;3.37;;;2.73;;
7334;SDS011;3708;42.632;23.378;2023-03-01T08:59:05;3.10;;;2.40;;
7334;SDS011;3708;42.632;23.378;2023-03-01T09:01:32;5.63;;;2.40;;
7334;SDS011;3708;42.632;23.378;2023-03-01T09:04:00;3.93;;;2.40;;
7334;SDS011;3708;42.632;23.378;2023-03-01T09:06:29;2.73;;;2.30;;
7334;SDS011;3708;42.632;23.378;2023-03-01T09:08:59;2.40;;;2.20;;
7334;SDS011;3708;42.632;23.378;2023-03-01T09:11:27;2.70;;;2.50;;
7334;SDS011;3708;42.632;23.378;2023-03-01T09:13:58;2.70;;;2.43;;
7334;SDS011;3708;42.632;23.378;2023-03-01T09:16:25;2.57;;;2.33;;
7334;SDS011;3708;42.632;23.378;2023-03-01T09:18:52;2.87;;;2.60;;
7334;SDS011;3708;42.632;23.378;2023-03-01T09:21:22;5.57;;;3.00;;
7334;SDS011;3708;42.632;23.378;2023-03-01T09:23:50;2.60;;;2.40;;
7334;SDS011;3708;42.632;23.378;2023-03-01T09:26:17;3.33;;;2.70;;
7334;SDS011;3708;42.632;23.378;2023-03-01T09:28:47;3.23;;;2.80;;
7334;SDS011;3708;42.632;23.378;2023-03-01T09:31:14;3.53;;;2.70;;
7334;SDS011;3708;42.632;23.378;2023-03-01T09:33:45;3.40;;;2.80;;
7334;SDS011;3708;42.632;23.378;2023-03-01T09:36:13;4.03;;;2.70;;
7334;SDS011;3708;42.632;23.378;2023-03-01T09:38:43;5.07;;;2.77;;
7334;SDS011;3708;42.632;23.378;2023-03-01T09:41:11;3.67;;;2.70;;
7334;SDS011;3708;42.632;23.378;2023-03-01T09:43:53;6.23;;;3.07;;
7334;SDS011;3708;42.632;23.378;2023-03-01T09:46:24;2.90;;;2.60;;
7334;SDS011;3708;42.632;23.378;2023-03-01T09:48:52;3.77;;;2.77;;
7334;SDS011;3708;42.632;23.378;2023-03-01T09:51:24;2.33;;;2.07;;
7334;SDS011;3708;42.632;23.378;2023-03-01T09:53:59;2.53;;;2.20;;
7334;SDS011;3708;42.632;23.378;2023-03-01T09:56:29;2.40;;;2.20;;
7334;SDS011;3708;42.632;23.378;2023-03-01T09:59:03;5.60;;;2.50;;
7334;SDS011;3708;42.632;23.378;2023-03-01T10:01:43;3.83;;;2.77;;
7334;SDS011;3708;42.632;23.378;2023-03-01T10:04:27;3.13;;;2.73;;
7334;SDS011;3708;42.632;23.378;2023-03-01T10:07:14;3.13;;;2.80;;
7334;SDS011;3708;42.632;23.378;2023-03-01T10:09:49;3.30;;;3.00;;
7334;SDS011;3708;42.632;23.378;2023-03-01T10:12:17;3.87;;;2.87;;
7334;SDS011;3708;42.632;23.378;2023-03-01T10:14:50;7.67;;;4.07;;
7334;SDS011;3708;42.632;23.378;2023-03-01T10:17:24;4.33;;;3.50;;
7334;SDS011;3708;42.632;23.378;2023-03-01T10:19:57;7.70;;;3.50;;
7334;SDS011;3708;42.632;23.378;2023-03-01T10:22:40;5.33;;;3.80;;
7334;SDS011;3708;42.632;23.378;2023-03-01T10:25:09;3.57;;;3.20;;
7334;SDS011;3708;42.632;23.378;2023-03-01T10:27:41;3.30;;;2.87;;
7334;SDS011;3708;42.632;23.378;2023-03-01T10:30:16;3.67;;;3.20;;
7334;SDS011;3708;42.632;23.378;2023-03-01T10:32:48;3.57;;;3.17;;
7334;SDS011;3708;42.632;23.378;2023-03-01T10:35:19;3.20;;;2.60;;
7334;SDS011;3708;42.632;23.378;2023-03-01T10:37:58;3.53;;;3.20;;
7334;SDS011;3708;42.632;23.378;2023-03-01T10:40:31;6.10;;;3.20;;
7334;SDS011;3708;42.632;23.378;2023-03-01T10:42:59;3.43;;;2.90;;
7334;SDS011;3708;42.632;23.378;2023-03-01T10:45:32;3.80;;;2.60;;
7334;SDS011;3708;42.632;23.378;2023-03-01T10:48:03;3.93;;;2.03;;
7334;SDS011;3708;42.632;23.378;2023-03-01T10:50:35;2.73;;;1.97;;
7334;SDS011;3708;42.632;23.378;2023-03-01T10:53:04;3.37;;;2.00;;
7334;SDS011;3708;42.632;23.378;2023-03-01T10:55:35;2.53;;;1.87;;
7334;SDS011;3708;42.632;23.378;2023-03-01T10:58:06;2.30;;;1.83;;
7334;SDS011;3708;42.632;23.378;2023-03-01T11:00:46;1.97;;;1.77;;
7334;SDS011;3708;42.632;23.378;2023-03-01T11:03:16;2.27;;;2.07;;
7334;SDS011;3708;42.632;23.378;2023-03-01T11:05:51;2.20;;;2.00;;
7334;SDS011;3708;42.632;23.378;2023-03-01T11:08:30;2.60;;;2.00;;
7334;SDS011;3708;42.632;23.378;2023-03-01T11:13:58;3.03;;;2.47;;
7334;SDS011;3708;42.632;23.378;2023-03-01T11:16:34;3.90;;;2.03;;
7334;SDS011;3708;42.632;23.378;2023-03-01T11:21:55;5.87;;;2.73;;
7334;SDS011;3708;42.632;23.378;2023-03-01T11:24:29;4.80;;;3.10;;
7334;SDS011;3708;42.632;23.378;2023-03-01T11:27:04;3.80;;;3.10;;
7334;SDS011;3708;42.632;23.378;2023-03-01T11:29:38;3.87;;;3.00;;
7334;SDS011;3708;42.632;23.378;2023-03-01T11:32:09;3.70;;;3.07;;
7334;SDS011;3708;42.632;23.378;2023-03-01T11:34:40;3.50;;;3.20;;
7334;SDS011;3708;42.632;23.378;2023-03-01T11:37:20;3.60;;;2.90;;
7334;SDS011;3708;42.632;23.378;2023-03-01T11:39:57;3.63;;;3.23;;
7334;SDS011;3708;42.632;23.378;2023-03-01T11:42:34;3.90;;;3.30;;
7334;SDS011;3708;42.632;23.378;2023-03-01T11:45:12;3.93;;;3.27;;
7334;SDS011;3708;42.632;23.378;2023-03-01T11:50:40;6.03;;;3.00;;
7334;SDS011;3708;42.632;23.378;2023-03-01T11:56:11;3.73;;;3.13;;
7334;SDS011;3708;42.632;23.378;2023-03-01T12:02:00;6.70;;;3.53;;
7334;SDS011;3708;42.632;23.378;2023-03-01T12:04:51;4.10;;;3.63;;
7334;SDS011;3708;42.632;23.378;2023-03-01T12:07:35;3.73;;;3.13;;
7334;SDS011;3708;42.632;23.378;2023-03-01T12:10:19;4.73;;;3.00;;
7334;SDS011;3708;42.632;23.378;2023-03-01T12:13:02;4.33;;;3.37;;
7334;SDS011;3708;42.632;23.378;2023-03-01T12:16:06;3.67;;;3.20;;
7334;SDS011;3708;42.632;23.378;2023-03-01T12:21:45;3.50;;;2.80;;
7334;SDS011;3708;42.632;23.378;2023-03-01T12:24:41;5.10;;;3.30;;
7334;SDS011;3708;42.632;23.378;2023-03-01T12:27:32;3.20;;;2.90;;
7334;SDS011;3708;42.632;23.378;2023-03-01T12:32:58;4.40;;;3.07;;
7334;SDS011;3708;42.632;23.378;2023-03-01T12:38:41;3.63;;;3.27;;
7334;SDS011;3708;42.632;23.378;2023-03-01T12:41:24;3.40;;;3.10;;
7334;SDS011;3708;42.632;23.378;2023-03-01T12:44:09;5.13;;;3.10;;
7334;SDS011;3708;42.632;23.378;2023-03-01T12:46:46;3.47;;;2.97;;
7334;SDS011;3708;42.632;23.378;2023-03-01T12:49:21;3.70;;;3.23;;
7334;SDS011;3708;42.632;23.378;2023-03-01T12:51:54;6.17;;;3.17;;
7334;SDS011;3708;42.632;23.378;2023-03-01T12:54:26;4.43;;;3.20;;
7334;SDS011;3708;42.632;23.378;2023-03-01T12:56:55;3.93;;;3.53;;
7334;SDS011;3708;42.632;23.378;2023-03-01T12:59:24;5.00;;;3.60;;
7334;SDS011;3708;42.632;23.378;2023-03-01T13:02:01;3.97;;;2.83;;
7334;SDS011;3708;42.632;23.378;2023-03-01T13:04:50;3.90;;;3.47;;
7334;SDS011;3708;42.632;23.378;2023-03-01T13:07:28;6.77;;;3.17;;
7334;SDS011;3708;42.632;23.378;2023-03-01T13:10:04;3.93;;;3.47;;
7334;SDS011;3708;42.632;23.378;2023-03-01T13:12:48;4.70;;;3.80;;
7334;SDS011;3708;42.632;23.378;2023-03-01T13:15:24;4.20;;;3.80;;
7334;SDS011;3708;42.632;23.378;2023-03-01T13:17:52;3.57;;;3.27;;
7334;SDS011;3708;42.632;23.378;2023-03-01T13:20:23;4.23;;;3.30;;
7334;SDS011;3708;42.632;23.378;2023-03-01T13:23:00;4.63;;;3.83;;
7334;SDS011;3708;42.632;23.378;2023-03-01T13:25:29;4.97;;;3.63;;
7334;SDS011;3708;42.632;23.378;2023-03-01T13:31:02;3.47;;;3.17;;
7334;SDS011;3708;42.632;23.378;2023-03-01T13:33:38;4.87;;;3.30;;
7334;SDS011;3708;42.632;23.378;2023-03-01T13:36:11;3.40;;;2.83;;
7334;SDS011;3708;42.632;23.378;2023-03-01T13:39:01;4.17;;;3.33;;
7334;SDS011;3708;42.632;23.378;2023-03-01T13:41:50;6.00;;;3.47;;
7334;SDS011;3708;42.632;23.378;2023-03-01T13:44:20;4.93;;;3.77;;
7334;SDS011;3708;42.632;23.378;2023-03-01T13:46:52;4.47;;;3.10;;
7334;SDS011;3708;42.632;23.378;2023-03-01T13:49:23;4.23;;;3.80;;
7334;SDS011;3708;42.632;23.378;2023-03-01T13:51:55;4.07;;;3.40;;
7334;SDS011;3708;42.632;23.378;2023-03-01T13:54:25;6.00;;;3.50;;
7334;SDS011;3708;42.632;23.378;2023-03-01T13:56:57;3.80;;;3.10;;
7334;SDS011;3708;42.632;23.378;2023-03-01T13:59:25;3.23;;;2.90;;
7334;SDS011;3708;42.632;23.378;2023-03-01T14:01:58;4.60;;;3.40;;
7334;SDS011;3708;42.632;23.378;2023-03-01T14:04:26;3.90;;;3.10;;
7334;SDS011;3708;42.632;23.378;2023-03-01T14:07:10;3.60;;;3.13;;
7334;SDS011;3708;42.632;23.378;2023-03-01T14:09:39;4.00;;;3.60;;
7334;SDS011;3708;42.632;23.378;2023-03-01T14:12:14;4.77;;;3.07;;
7334;SDS011;3708;42.632;23.378;2023-03-01T14:14:52;4.20;;;3.53;;
7334;SDS011;3708;42.632;23.378;2023-03-01T14:20:23;4.70;;;3.00;;
7334;SDS011;3708;42.632;23.378;2023-03-01T14:22:54;3.90;;;3.17;;
7334;SDS011;3708;42.632;23.378;2023-03-01T14:25:24;4.33;;;3.30;;
7334;SDS011;3708;42.632;23.378;2023-03-01T14:27:58;7.13;;;3.33;;
7334;SDS011;3708;42.632;23.378;2023-03-01T14:30:30;3.90;;;3.50;;
7334;SDS011;3708;42.632;23.378;2023-03-01T14:33:01;4.37;;;3.17;;
7334;SDS011;3708;42.632;23.378;2023-03-01T14:35:29;5.10;;;3.10;;
7334;SDS011;3708;42.632;23.378;2023-03-01T14:38:05;4.67;;;3.20;;
7334;SDS011;3708;42.632;23.378;2023-03-01T14:40:33;3.77;;;3.37;;
7334;SDS011;3708;42.632;23.378;2023-03-01T14:43:08;3.37;;;3.00;;
7334;SDS011;3708;42.632;23.378;2023-03-01T14:45:37;4.50;;;3.40;;
7334;SDS011;3708;42.632;23.378;2023-03-01T14:48:04;9.57;;;3.23;;
7334;SDS011;3708;42.632;23.378;2023-03-01T14:50:34;5.47;;;3.10;;
7334;SDS011;3708;42.632;23.378;2023-03-01T14:53:03;4.47;;;3.37;;
7334;SDS011;3708;42.632;23.378;2023-03-01T14:55:35;3.30;;;2.90;;
7334;SDS011;3708;42.632;23.378;2023-03-01T14:58:13;3.40;;;2.80;;
7334;SDS011;3708;42.632;23.378;2023-03-01T15:00:46;7.73;;;2.90;;
7334;SDS011;3708;42.632;23.378;2023-03-01T15:03:18;4.00;;;2.97;;
7334;SDS011;3708;42.632;23.378;2023-03-01T15:05:50;7.50;;;3.67;;
7334;SDS011;3708;42.632;23.378;2023-03-01T15:08:20;4.43;;;3.27;;
7334;SDS011;3708;42.632;23.378;2023-03-01T15:10:56;4.60;;;3.23;;
7334;SDS011;3708;42.632;23.378;2023-03-01T15:13:28;4.60;;;3.97;;
7334;SDS011;3708;42.632;23.378;2023-03-01T15:16:01;4.53;;;3.33;;
7334;SDS011;3708;42.632;23.378;2023-03-01T15:18:33;4.00;;;3.60;;
7334;SDS011;3708;42.632;23.378;2023-03-01T15:21:05;4.47;;;3.47;;
7334;SDS011;3708;42.632;23.378;2023-03-01T15:23:35;5.80;;;3.70;;
7334;SDS011;3708;42.632;23.378;2023-03-01T15:26:05;5.10;;;3.60;;
7334;SDS011;3708;42.632;23.378;2023-03-01T15:28:33;7.80;;;3.60;;
7334;SDS011;3708;42.632;23.378;2023-03-01T15:31:05;3.83;;;3.27;;
7334;SDS011;3708;42.632;23.378;2023-03-01T15:33:45;4.20;;;3.47;;
7334;SDS011;3708;42.632;23.378;2023-03-01T15:36:30;5.37;;;3.80;;
7334;SDS011;3708;42.632;23.378;2023-03-01T15:39:00;7.20;;;3.97;;
7334;SDS011;3708;42.632;23.378;2023-03-01T15:41:29;4.10;;;3.70;;
7334;SDS011;3708;42.632;23.378;2023-03-01T15:43:58;7.63;;;4.53;;
7334;SDS011;3708;42.632;23.378;2023-03-01T15:46:26;5.00;;;3.77;;
7334;SDS011;3708;42.632;23.378;2023-03-01T15:48:57;4.93;;;3.63;;
7334;SDS011;3708;42.632;23.378;2023-03-01T15:51:29;7.63;;;3.77;;